Aberdovey, United Kingdom
Current Conditions -  °F | °C
As of 8:50 AM on Monday 22 Dec 2014 (Local Time) from EGOV Reporting Station
Haze Haze  
Wind Chill: 54°   Ceiling: 3500
Heat Index: 54°   Visibility: 3mi
Dew Point: 50°   Wind: 30mph
Humidity: 88%   Direction: 210°SSW
Pressure: 29.88"   Gusts: NA
Location:  52.55°N, 4.05°W
Report Text: EGOV 220850Z AUTO 21026KT 5000 HZ SCT010/// BKN035/// 12/10 Q1012
Loading
Personal Weather Stations






























Interactive Weather Map New forecast layout! Learn more

10-Day Weather Forecast

Advertisements
Track Severe Weather on mobile